Flight Track Log - Related Links

Times and Time Zones

All times are in EDT time to prevent confusion due to time zone crossing. See the UAL1202 flight status page for this flight to view local times or setup timezone preferences in your user account.

Time Position Orientation Groundspeed Altitude Reporting Facility
EDT Latitude Longitude Course Direction KTS MPH feet Rate Location/Type
Tue 12:45:48 AM 39.8833 -104.6167 327° Northwest 189 217 6,300  Level Denver TRACON
Tue 12:46:36 AM 39.8833 -104.5500 90° East 226 260 7,500 2,105 Climbing Denver TRACON
Tue 12:47:42 AM 39.9333 -104.4833 46° Northeast 289 333 10,300 2,227 Climbing Denver TRACON
Tue 12:48:48 AM 40.0333 -104.5500 333° Northwest 335 386 12,400 2,250 Climbing Denver TRACON
Tue 12:50:06 AM 40.1464 -104.6264 333° Northwest 379 436 15,700 2,504 Climbing Denver Center
Tue 12:51:00 AM 40.1992 -104.5135 327° Northwest  Level FlightAware Approximate
Tue 12:51:07 AM 40.2431 -104.6950 332° Northwest 394 453 18,200  Level Denver Center
Tue 12:52:08 AM 40.3431 -104.7661 332° Northwest 411 473 20,700 2,361 Climbing Denver Center
Tue 12:53:09 AM 40.4519 -104.8442 331° Northwest 416 479 23,000 1,672 Climbing Denver Center
Tue 12:54:10 AM 40.5467 -104.9169 330° Northwest 428 493 24,100 1,328 Climbing Denver Center
Tue 12:55:11 AM 40.6544 -104.9925 332° Northwest 439 505 25,700 1,525 Climbing Denver Center
Tue 12:56:12 AM 40.7656 -105.0725 331° Northwest 453 521 27,200 1,426 Climbing Denver Center
Tue 12:57:13 AM 40.8647 -105.1819 320° Northwest 465 535 28,600 1,623 Climbing Denver Center
Tue 12:58:14 AM 40.9636 -105.2931 320° Northwest 470 541 30,500 1,967 Climbing Denver Center
Tue 12:59:15 AM 41.0700 -105.4158 319° Northwest 465 535 32,600 1,820 Climbing Denver Center
Tue 01:00:16 AM 41.1783 -105.5386 320° Northwest 460 529 34,200 1,475 Climbing Denver Center
Tue 01:01:17 AM 41.2697 -105.6447 319° Northwest 456 525 35,600 893 Climbing Denver Center
Tue 01:02:17 AM 41.3608 -105.7500 319° Northwest 453 521 36,000 180 Climbing Denver Center
Tue 01:03:30 AM 41.4733 -105.9017 315° West 452 520 36,000  Level Denver Center
Tue 01:04:31 AM 41.5589 -106.0178 315° West 454 522 36,000  Level Denver Center
Tue 01:05:32 AM 41.6442 -106.1303 315° West 452 520 36,000  Level Denver Center
Tue 01:06:33 AM 41.7403 -106.2619 314° West 446 513 36,000  Level Denver Center
Tue 01:07:34 AM 41.8261 -106.3767 315° West 451 519 36,000  Level Denver Center
Tue 01:08:35 AM 41.9097 -106.4906 315° West 446 513 36,000  Level Denver Center
Tue 01:09:35 AM 42.0092 -106.6242 315° West 447 514 36,000  Level Denver Center
Tue 01:10:36 AM 42.0911 -106.7372 314° West 444 511 36,000  Level Denver Center
Tue 01:11:37 AM 42.1719 -106.8497 314° West 442 509 36,000  Level Denver Center
Tue 01:12:38 AM 42.2697 -106.9833 315° West 450 518 36,000  Level Denver Center
Tue 01:13:39 AM 42.3511 -107.0975 314° West 444 511 36,000  Level Denver Center
Tue 01:14:39 AM 42.4364 -107.2150 315° West 453 521 36,000  Level Denver Center
Tue 01:15:40 AM 42.5328 -107.3503 314° West 451 519 36,000  Level Denver Center
Tue 01:16:33 AM 42.6008 -107.4461 314° West 450 518 36,000  Level Salt Lake Center
Tue 01:17:34 AM 42.6975 -107.5850 313° West 454 522 36,000  Level Salt Lake Center
Tue 01:18:35 AM 42.7800 -107.7019 314° West 449 517 36,000  Level Salt Lake Center
Tue 01:19:36 AM 42.8619 -107.8194 314° West 448 516 36,000  Level Salt Lake Center
Tue 01:20:37 AM 42.9614 -107.9622 314° West 446 513 36,000  Level Salt Lake Center
Tue 01:21:38 AM 43.0436 -108.0814 313° West 449 517 36,000  Level Salt Lake Center
Tue 01:22:39 AM 43.1258 -108.1992 314° West 449 517 36,000  Level Salt Lake Center
Tue 01:23:40 AM 43.2208 -108.3372 313° West 447 514 36,000  Level Salt Lake Center
Tue 01:24:41 AM 43.3028 -108.4569 313° West 448 516 36,000  Level Salt Lake Center
Tue 01:25:42 AM 43.3844 -108.5769 313° West 448 516 36,000  Level Salt Lake Center
Tue 01:26:43 AM 43.4792 -108.7158 313° West 446 513 36,000  Level Salt Lake Center
Tue 01:27:44 AM 43.5597 -108.8344 313° West 444 511 36,000  Level Salt Lake Center
Tue 01:28:45 AM 43.6406 -108.9544 313° West 445 512 36,000  Level Salt Lake Center
Tue 01:29:46 AM 43.7358 -109.0956 313° West 446 513 36,000  Level Salt Lake Center
Tue 01:30:47 AM 43.8161 -109.2172 312° West 448 516 36,000  Level Salt Lake Center
Tue 01:31:48 AM 43.8981 -109.3372 313° West 447 514 36,000  Level Salt Lake Center
Tue 01:32:49 AM 43.9925 -109.4819 312° West 451 519 36,000  Level Salt Lake Center
Tue 01:33:49 AM 44.0772 -109.6075 313° West 445 512 36,000  Level Salt Lake Center
Tue 01:34:50 AM 44.1586 -109.7289 313° West 448 516 36,000  Level Salt Lake Center
Tue 01:35:51 AM 44.2375 -109.8519 312° West 447 514 36,000  Level Salt Lake Center
Tue 01:36:52 AM 44.3297 -109.9942 312° West 444 511 36,000  Level Salt Lake Center
Tue 01:37:53 AM 44.4089 -110.1156 312° West 444 511 36,000  Level Salt Lake Center
Tue 01:38:54 AM 44.4883 -110.2375 312° West 443 510 36,000  Level Salt Lake Center
Tue 01:39:54 AM 44.5800 -110.3839 311° West 447 514 36,000  Level Salt Lake Center
Tue 01:40:55 AM 44.6603 -110.5089 312° West 453 521 36,000  Level Salt Lake Center
Tue 01:41:56 AM 44.7519 -110.6547 312° West 450 518 36,000  Level Salt Lake Center
Tue 01:42:57 AM 44.8317 -110.7797 312° West 450 518 36,000  Level Salt Lake Center
Tue 01:43:58 AM 44.9108 -110.9031 312° West 448 516 36,000  Level Salt Lake Center
Tue 01:44:58 AM 45.0019 -111.0486 312° West 448 516 36,000  Level Salt Lake Center
Tue 01:45:59 AM 45.0803 -111.1739 312° West 447 514 36,000  Level Salt Lake Center
Tue 01:47:00 AM 45.1619 -111.3061 311° West 443 510 36,000  Level Salt Lake Center
Tue 01:48:01 AM 45.2431 -111.4389 311° West 443 510 36,000  Level Salt Lake Center
Tue 01:49:02 AM 45.3242 -111.5708 311° West 441 507 36,000  Level Salt Lake Center
Tue 01:50:02 AM 45.4058 -111.7039 311° West 442 509 36,000  Level Salt Lake Center
Tue 01:51:03 AM 45.4878 -111.8400 311° West 448 516 36,000  Level Salt Lake Center
Tue 01:52:04 AM 45.5697 -111.9744 311° West 447 514 36,000  Level Salt Lake Center
Tue 01:53:05 AM 45.6514 -112.1094 311° West 447 514 36,000 -446 Level Salt Lake Center
Tue 01:54:05 AM 45.7331 -112.2458 311° West 448 516 35,100 -942 Descending Salt Lake Center
Tue 01:55:06 AM 45.8150 -112.3836 311° West 451 519 34,100 -541 Descending Salt Lake Center
Tue 01:56:07 AM 45.8892 -112.5297 306° West 453 521 34,000 -49 Descending Salt Lake Center
Tue 01:57:08 AM 45.9453 -112.6903 297° West 452 520 34,000  Level Salt Lake Center
Tue 01:58:08 AM 46.0053 -112.8464 299° West 447 514 34,000  Level Salt Lake Center
Tue 01:59:09 AM 46.0658 -113.0053 299° West 450 518 34,000  Level Salt Lake Center
Tue 02:00:10 AM 46.1247 -113.1628 298° West 449 517 34,000  Level Salt Lake Center
Tue 02:01:10 AM 46.1900 -113.3392 298° West 453 521 34,000  Level Salt Lake Center
Tue 02:02:11 AM 46.2481 -113.4972 298° West 448 516 34,000 -49 Level Salt Lake Center
Tue 02:03:12 AM 46.3058 -113.6567 298° West 448 516 33,900  Descending Salt Lake Center
Tue 02:04:13 AM 46.3642 -113.8147 298° West 446 513 34,000  Climbing Salt Lake Center
Tue 02:05:13 AM 46.4208 -113.9753 297° West 449 517 33,900  Descending Salt Lake Center
Tue 02:06:14 AM 46.4778 -114.1339 298° West 445 512 34,000  Climbing Salt Lake Center
Tue 02:07:15 AM 46.5350 -114.2914 298° West 443 510 33,900 -50 Descending Salt Lake Center
Tue 02:08:15 AM 46.5914 -114.4514 297° West 444 511 33,900 50 Level Salt Lake Center
Tue 02:09:16 AM 46.6464 -114.6108 297° West 442 509 34,000 50 Climbing Salt Lake Center
Tue 02:10:16 AM 46.7028 -114.7697 297° West 441 507 34,000  Level Salt Lake Center
Tue 02:11:17 AM 46.7589 -114.9297 297° West 443 510 34,000 -49 Level Salt Lake Center
Tue 02:12:18 AM 46.8150 -115.0917 297° West 446 513 33,900 -326 Descending Salt Lake Center
Tue 02:12:49 AM 46.8467 -115.1881 296° West 443 510 33,500 -989 Descending Seattle Center
Tue 02:13:49 AM 46.9008 -115.3450 297° West 435 501 32,400 -1,267 Descending Seattle Center
Tue 02:14:19 AM 46.9222 -115.4067 297° West 433 498 31,600 -2,176 Descending Salt Lake Center
Tue 02:15:20 AM 46.9747 -115.5603 297° West 425 489 29,100 -2,571 Descending Salt Lake Center
Tue 02:15:50 AM 47.0061 -115.6544 296° West 415 478 27,700 -2,440 Descending Seattle Center
Tue 02:16:51 AM 47.0553 -115.8006 296° West 402 463 25,400 -2,164 Descending Seattle Center
Tue 02:17:52 AM 47.1028 -115.9442 296° West 395 455 23,300 -2,083 Descending Seattle Center
Tue 02:18:52 AM 47.1497 -116.0842 296° West 386 444 21,200 -2,083 Descending Seattle Center
Tue 02:19:53 AM 47.1947 -116.2189 296° West 374 430 19,100 -2,033 Descending Seattle Center
Tue 02:20:53 AM 47.2381 -116.3492 296° West 361 415 17,100 -1,983 Descending Seattle Center
Tue 02:21:54 AM 47.2789 -116.4758 295° West 344 396 15,100 -1,934 Descending Seattle Center
Tue 02:22:54 AM 47.3192 -116.5983 296° West 334 384 13,200 -1,934 Descending Seattle Center
Tue 02:23:55 AM 47.3656 -116.7242 299° West 349 402 11,200 -1,339 Descending Seattle Center
Tue 02:24:55 AM 47.4328 -116.8258 314° West 331 381 10,500 -1,091 Descending Seattle Center
Tue 02:25:56 AM 47.4950 -116.9200 314° West 299 344 9,000 -1,438 Descending Seattle Center
Tue 02:26:56 AM 47.5508 -117.0025 315° West 287 330 7,600 -1,240 Descending Seattle Center
Tue 02:27:57 AM 47.6058 -117.0858 314° West 284 327 6,500 -689 Descending Seattle Center
Tue 02:28:58 AM 47.6556 -117.1614 314° West 238 274 6,200 -645 Descending Seattle Center
Tue 02:29:58 AM 47.6994 -117.2325 313° West 235 270 5,200 -744 Descending Seattle Center
Tue 02:30:59 AM 47.7025 -117.3178 273° West 221 254 4,700 -446 Descending Seattle Center
Tue 02:31:59 AM 47.6944 -117.4025 262° West 209 241 4,300 -400 Descending Seattle Center

Login

Don't have an account? Register now (free) for customized features, flight alerts, and more!